Aérodrome :
LOGIN :

S'inscrire | Disclaimer

   EN    FR    IT 

 










Légende :    VFR   VFR Marginal   IFR   IFR Intensif   IFR Très Intensif
Visi : 
Plafond : 
>= 8 km
>= 3000ft
5 à 8 km
1000 à 3000 ft
1500m à 5 km
500 à 1000 ft
800 à 1500m
200 à 500 ft
< 800m
< 200 ft
Symboles :   Orages  Brouillard  Fortes neiges  Fortes précipitations  Vent > 20 kt
SIGMETs :   Divers  Orages  Givrage  Turbulence  Onde Orograph.  Cendres Volcan.







- Altitude de l'aérodrome : 53 ft
- Code IATA : HRT


EGXU - RAF Linton-on-Ouse

DERNIER METAR :
  • 221150Z 19020KT 9999 OVC026 15/10 Q0987 BLU TEMPO 19022G32KT BLU

METARs EXPIRÉS :
  • 221050Z 20016G28KT 9999 BKN023 OVC050 15/10 Q0989 WHT TEMPO BKN025 BLU
  • 220950Z 18011KT 9999 BKN024 OVC050 13/10 Q0989 WHT TEMPO 19015G26KT 7000 -RA WHT

TAF TAF EGXU
Valide du 22 à 12h jusqu'au 22 à 19h UTC


221036Z 2212/2219 19015G28KT 9999 FEW009 BKN025
TEMPO 2212/2219 4000 -RADZ SCT015
PROB30
TEMPO 2214/2219 19025G40KT
Pas de NOTAMs connus pour ce terrain.
2 SIGMETs publiés pour la FIR London (EGTT) :
 
Turbulence forte
EGTT SIGMET 05 VALID 221000/221400 EGRR
EGTT LONDON FIR SEV TURB FCST WI N4850 W00800 - N5100 W00800 - N5220 W00530 - N5345 W00530 - N5439 W00223 - N4932 W00435 - N4850 W00800 SFC/FL060 MOV ENE 15KT INTSF=
Onde orographique forte
EGTT SIGMET 04 VALID 221000/221400 EGRR
EGTT LONDON FIR SEV MTW FCST WI N5500 E00045 - N5412 E00110 - N5047 W00255 - N5045 W00430 - N5500 W00415 - N5500 W00100 - N5500 E00045 FL020/180 STNR INTSF=



MET'MAP, la Météo Aéronautique d'un coup d'oeil ! - Copyright ORBIFLY Décembre 2007 - Disclaimer

ORBIFLY MET'MAP TEAM :

Programmation & Développement : Alexandra Zaïnal
Conception & Développement : Baudouin d'Aumeries
Co-Programmation & Développement : Marc-Olivier Méhu
Soutien technique & logistique : Manuel Goepfert

Contact : metmap@orbifly.com




SOURCES & CREDITS :

   NOAA